Rusty Hill — WDA6027 — position and weather

sailwx.info

Track history (hours):
 
Tides and Currents Weather Stations Pressure Air Temp Water Temp Dewpoint Dewpoint Depression Visibility Wind Speed Wind Dir Waves Ship Positions

Rusty Hill

Owner: Blessey Enterprises, Inc., HARAHAN, LA. More information available from US FCC via Universal Licensing System.

Last reported at 2018-Jan-10 10:29 UTC. Time now 2018-Jan-20 13:27 UTC.
Position N 29°32' W 094°54'.
Warning: this ship's position is 10 days out of date.

Length 43 m; draft 2.6 m.

Type: Tug. MMSI: 366826930.

Date/timePositionNaut miles runAvg speedWind from/ knotsBaromVisibWave heightAir tempDewpointWater temp
2018-Jan-10 10:29N 29°32' W 094°54'4 8.0
2018-Jan-10 10:01N 29°35' W 094°56'4 7.8
2018-Jan-10 09:30N 29°38' W 094°58'4 7.8
2018-Jan-10 09:00N 29°42' W 094°60'3 6.9
2018-Jan-10 08:30N 29°44' W 095°03'7 0.5
2018-Jan-09 19:33N 29°45' W 095°11'2 5.6
2018-Jan-09 19:13N 29°44' W 095°09'1 6.0
2018-Jan-09 19:00N 29°44' W 095°07'3 5.6
2018-Jan-09 18:29N 29°46' W 095°05'1 2.5
2018-Jan-09 18:00N 29°47' W 095°05'0 0.4
2018-Jan-09 17:30N 29°47' W 095°05'0 0.1
2018-Jan-09 15:52N 29°47' W 095°04'3 1.0
2018-Jan-09 12:26N 29°44' W 095°03'3 5.4
2018-Jan-09 11:56N 29°42' W 095°01'  
2018-Jan-06 23:18N 29°31' W 094°53'2 7.3
2018-Jan-06 23:00N 29°33' W 094°55'4 7.5
2018-Jan-06 22:30N 29°36' W 094°57'4 7.4
2018-Jan-06 22:00N 29°40' W 094°59'4 7.3
2018-Jan-06 21:30N 29°43' W 095°01'0 0.0
2018-Jan-06 11:52N 29°42' W 095°01'2 6.3
2018-Jan-06 11:30N 29°41' W 094°59'3 6.6
2018-Jan-06 11:00N 29°38' W 094°58'3 6.8
2018-Jan-06 10:30N 29°35' W 094°56'3 6.9
2018-Jan-06 10:00N 29°32' W 094°54'  
2018-Jan-04 05:43N 29°31' W 094°53'2 6.9
2018-Jan-04 05:30N 29°32' W 094°54'3 6.9
2018-Jan-04 05:00N 29°35' W 094°56'4 7.0
2018-Jan-04 04:30N 29°38' W 094°58'4 7.0
2018-Jan-04 04:00N 29°41' W 094°59'3 6.2
2018-Jan-04 03:29N 29°44' W 095°02'2 0.4
2018-Jan-03 23:14N 29°42' W 095°01'2 6.6
2018-Jan-03 23:00N 29°42' W 094°59'3 6.5
2018-Jan-03 22:31N 29°39' W 094°58'3 6.4
2018-Jan-03 22:01N 29°36' W 094°57'3 6.7
2018-Jan-03 21:30N 29°33' W 094°54'1 0.0
2018-Jan-01 22:38N 29°32' W 094°54'1 5.9
2018-Jan-01 22:31N 29°32' W 094°54'3 6.8
2018-Jan-01 22:01N 29°35' W 094°56'3 6.4
2018-Jan-01 21:31N 29°37' W 094°59'2 3.6
2018-Jan-01 21:01N 29°37' W 095°01'0 0.0
2018-Jan-01 20:31N 29°37' W 095°01'0 0.0
2018-Jan-01 20:01N 29°37' W 095°01'0 0.0
2018-Jan-01 19:31N 29°37' W 095°01'0 0.0
2018-Jan-01 19:01N 29°37' W 095°01'0 0.0
2018-Jan-01 18:31N 29°37' W 095°01'0 0.0
2018-Jan-01 18:01N 29°37' W 095°01'0 0.0
2018-Jan-01 17:31N 29°37' W 095°01'0 0.0
2018-Jan-01 15:01N 29°37' W 095°01'0 0.0
2018-Jan-01 14:30N 29°37' W 095°01'0 0.0
2018-Jan-01 14:01N 29°37' W 095°01'0 0.0
2018-Jan-01 13:31N 29°37' W 095°01'0 0.0
2018-Jan-01 13:01N 29°37' W 095°01'0 0.0
2018-Jan-01 12:01N 29°37' W 095°01'0 0.0
2018-Jan-01 11:30N 29°37' W 095°01'0 0.0
2018-Jan-01 11:01N 29°37' W 095°01'0 0.0
2018-Jan-01 10:30N 29°37' W 095°01'0 0.0
2018-Jan-01 10:01N 29°37' W 095°01'0 0.0
2018-Jan-01 09:31N 29°37' W 095°01'0 0.0
2018-Jan-01 08:30N 29°37' W 095°01'0 0.0
2018-Jan-01 08:01N 29°37' W 095°01'0 0.0
2018-Jan-01 07:30N 29°37' W 095°01'0 0.0
2018-Jan-01 07:01N 29°37' W 095°01'0 0.0
2018-Jan-01 06:01N 29°37' W 095°01'0 0.0
2018-Jan-01 05:31N 29°37' W 095°01'0 0.0
2018-Jan-01 05:00N 29°37' W 095°01'0 0.0
2018-Jan-01 04:01N 29°37' W 095°01'0 0.0
2018-Jan-01 03:31N 29°37' W 095°01'0 0.0
2018-Jan-01 03:01N 29°37' W 095°01'0 0.0
2018-Jan-01 02:31N 29°37' W 095°01'0 0.0
2018-Jan-01 02:00N 29°37' W 095°01'0 0.0
2018-Jan-01 01:30N 29°37' W 095°01'3 3.4
2018-Jan-01 00:31N 29°37' W 094°58'11 1.5
2017-Dec-31 16:43N 29°46' W 095°06'4 1.8
2017-Dec-31 14:20N 29°44' W 095°02'2 5.8
2017-Dec-31 14:00N 29°42' W 095°01'3 5.9
2017-Dec-31 13:30N 29°40' W 094°58'4 7.1
2017-Dec-31 13:01N 29°37' W 094°57'4 7.0
2017-Dec-31 12:30N 29°34' W 094°55'3 6.5
2017-Dec-31 12:00N 29°31' W 094°53'  
Track history (hours):
 
Tides and Currents Weather Stations Pressure Air Temp Water Temp Dewpoint Dewpoint Depression Visibility Wind Speed Wind Dir Waves Ship Positions

Rusty Hill

Owner: Blessey Enterprises, Inc., HARAHAN, LA. More information available from US FCC via Universal Licensing System.

Last reported at 2018-Jan-10 10:29 UTC. Time now 2018-Jan-20 13:27 UTC.
Position N 29°32' W 094°54'.
Warning: this ship's position is 10 days out of date.

Length 43 m; draft 2.6 m.

Type: Tug. MMSI: 366826930.

Date/timePositionNaut miles runAvg speedWind from/ knotsBaromVisibWave heightAir tempDewpointWater temp
2018-Jan-10 10:29N 29°32' W 094°54'4 8.0
2018-Jan-10 10:01N 29°35' W 094°56'4 7.8
2018-Jan-10 09:30N 29°38' W 094°58'4 7.8
2018-Jan-10 09:00N 29°42' W 094°60'3 6.9
2018-Jan-10 08:30N 29°44' W 095°03'7 0.5
2018-Jan-09 19:33N 29°45' W 095°11'2 5.6
2018-Jan-09 19:13N 29°44' W 095°09'1 6.0
2018-Jan-09 19:00N 29°44' W 095°07'3 5.6
2018-Jan-09 18:29N 29°46' W 095°05'1 2.5
2018-Jan-09 18:00N 29°47' W 095°05'0 0.4
2018-Jan-09 17:30N 29°47' W 095°05'0 0.1
2018-Jan-09 15:52N 29°47' W 095°04'3 1.0
2018-Jan-09 12:26N 29°44' W 095°03'3 5.4
2018-Jan-09 11:56N 29°42' W 095°01'  
2018-Jan-06 23:18N 29°31' W 094°53'2 7.3
2018-Jan-06 23:00N 29°33' W 094°55'4 7.5
2018-Jan-06 22:30N 29°36' W 094°57'4 7.4
2018-Jan-06 22:00N 29°40' W 094°59'4 7.3
2018-Jan-06 21:30N 29°43' W 095°01'0 0.0
2018-Jan-06 11:52N 29°42' W 095°01'2 6.3
2018-Jan-06 11:30N 29°41' W 094°59'3 6.6
2018-Jan-06 11:00N 29°38' W 094°58'3 6.8
2018-Jan-06 10:30N 29°35' W 094°56'3 6.9
2018-Jan-06 10:00N 29°32' W 094°54'  
2018-Jan-04 05:43N 29°31' W 094°53'2 6.9
2018-Jan-04 05:30N 29°32' W 094°54'3 6.9
2018-Jan-04 05:00N 29°35' W 094°56'4 7.0
2018-Jan-04 04:30N 29°38' W 094°58'4 7.0
2018-Jan-04 04:00N 29°41' W 094°59'3 6.2
2018-Jan-04 03:29N 29°44' W 095°02'2 0.4
2018-Jan-03 23:14N 29°42' W 095°01'2 6.6
2018-Jan-03 23:00N 29°42' W 094°59'3 6.5
2018-Jan-03 22:31N 29°39' W 094°58'3 6.4
2018-Jan-03 22:01N 29°36' W 094°57'3 6.7
2018-Jan-03 21:30N 29°33' W 094°54'1 0.0
2018-Jan-01 22:38N 29°32' W 094°54'1 5.9
2018-Jan-01 22:31N 29°32' W 094°54'3 6.8
2018-Jan-01 22:01N 29°35' W 094°56'3 6.4
2018-Jan-01 21:31N 29°37' W 094°59'2 3.6
2018-Jan-01 21:01N 29°37' W 095°01'0 0.0
2018-Jan-01 20:31N 29°37' W 095°01'0 0.0
2018-Jan-01 20:01N 29°37' W 095°01'0 0.0
2018-Jan-01 19:31N 29°37' W 095°01'0 0.0
2018-Jan-01 19:01N 29°37' W 095°01'0 0.0
2018-Jan-01 18:31N 29°37' W 095°01'0 0.0
2018-Jan-01 18:01N 29°37' W 095°01'0 0.0
2018-Jan-01 17:31N 29°37' W 095°01'0 0.0
2018-Jan-01 15:01N 29°37' W 095°01'0 0.0
2018-Jan-01 14:30N 29°37' W 095°01'0 0.0
2018-Jan-01 14:01N 29°37' W 095°01'0 0.0
2018-Jan-01 13:31N 29°37' W 095°01'0 0.0
2018-Jan-01 13:01N 29°37' W 095°01'0 0.0
2018-Jan-01 12:01N 29°37' W 095°01'0 0.0
2018-Jan-01 11:30N 29°37' W 095°01'0 0.0
2018-Jan-01 11:01N 29°37' W 095°01'0 0.0
2018-Jan-01 10:30N 29°37' W 095°01'0 0.0
2018-Jan-01 10:01N 29°37' W 095°01'0 0.0
2018-Jan-01 09:31N 29°37' W 095°01'0 0.0
2018-Jan-01 08:30N 29°37' W 095°01'0 0.0
2018-Jan-01 08:01N 29°37' W 095°01'0 0.0
2018-Jan-01 07:30N 29°37' W 095°01'0 0.0
2018-Jan-01 07:01N 29°37' W 095°01'0 0.0
2018-Jan-01 06:01N 29°37' W 095°01'0 0.0
2018-Jan-01 05:31N 29°37' W 095°01'0 0.0
2018-Jan-01 05:00N 29°37' W 095°01'0 0.0
2018-Jan-01 04:01N 29°37' W 095°01'0 0.0
2018-Jan-01 03:31N 29°37' W 095°01'0 0.0
2018-Jan-01 03:01N 29°37' W 095°01'0 0.0
2018-Jan-01 02:31N 29°37' W 095°01'0 0.0
2018-Jan-01 02:00N 29°37' W 095°01'0 0.0
2018-Jan-01 01:30N 29°37' W 095°01'3 3.4
2018-Jan-01 00:31N 29°37' W 094°58'11 1.5
2017-Dec-31 16:43N 29°46' W 095°06'4 1.8
2017-Dec-31 14:20N 29°44' W 095°02'2 5.8
2017-Dec-31 14:00N 29°42' W 095°01'3 5.9
2017-Dec-31 13:30N 29°40' W 094°58'4 7.1
2017-Dec-31 13:01N 29°37' W 094°57'4 7.0
2017-Dec-31 12:30N 29°34' W 094°55'3 6.5
2017-Dec-31 12:00N 29°31' W 094°53'  

Dump ship's entire track history